sensor_id;sensor_type;location;lat;lon;timestamp;P1;durP1;ratioP1;P2;durP2;ratioP2
77302;SDS011;66363;49.828;7.856;2023-05-10T00:01:54;0.22;;;0.20;;
77302;SDS011;66363;49.828;7.856;2023-05-10T00:04:19;0.22;;;0.20;;
77302;SDS011;66363;49.828;7.856;2023-05-10T00:06:45;0.17;;;0.17;;
77302;SDS011;66363;49.828;7.856;2023-05-10T00:09:11;0.45;;;0.28;;
77302;SDS011;66363;49.828;7.856;2023-05-10T00:11:38;0.45;;;0.30;;
77302;SDS011;66363;49.828;7.856;2023-05-10T00:14:03;0.10;;;0.10;;
77302;SDS011;66363;49.828;7.856;2023-05-10T00:16:29;0.10;;;0.10;;
77302;SDS011;66363;49.828;7.856;2023-05-10T00:18:54;0.43;;;0.43;;
77302;SDS011;66363;49.828;7.856;2023-05-10T00:21:21;0.30;;;0.25;;
77302;SDS011;66363;49.828;7.856;2023-05-10T00:26:12;0.05;;;0.05;;
77302;SDS011;66363;49.828;7.856;2023-05-10T00:28:39;0.35;;;0.35;;
77302;SDS011;66363;49.828;7.856;2023-05-10T00:31:04;0.03;;;0.00;;
77302;SDS011;66363;49.828;7.856;2023-05-10T00:33:30;0.17;;;0.15;;
77302;SDS011;66363;49.828;7.856;2023-05-10T00:35:56;0.22;;;0.20;;
77302;SDS011;66363;49.828;7.856;2023-05-10T00:38:21;0.22;;;0.22;;
77302;SDS011;66363;49.828;7.856;2023-05-10T00:40:47;0.20;;;0.20;;
77302;SDS011;66363;49.828;7.856;2023-05-10T00:43:12;1.42;;;0.40;;
77302;SDS011;66363;49.828;7.856;2023-05-10T00:45:39;0.40;;;0.30;;
77302;SDS011;66363;49.828;7.856;2023-05-10T00:48:06;0.35;;;0.35;;
77302;SDS011;66363;49.828;7.856;2023-05-10T00:50:32;0.20;;;0.20;;
77302;SDS011;66363;49.828;7.856;2023-05-10T00:55:24;0.17;;;0.17;;
77302;SDS011;66363;49.828;7.856;2023-05-10T00:57:49;0.80;;;0.50;;
77302;SDS011;66363;49.828;7.856;2023-05-10T01:00:15;0.32;;;0.30;;
77302;SDS011;66363;49.828;7.856;2023-05-10T01:02:42;0.30;;;0.20;;
77302;SDS011;66363;49.828;7.856;2023-05-10T01:05:08;0.25;;;0.25;;
77302;SDS011;66363;49.828;7.856;2023-05-10T01:07:34;0.80;;;0.20;;
77302;SDS011;66363;49.828;7.856;2023-05-10T01:09:59;0.65;;;0.40;;
77302;SDS011;66363;49.828;7.856;2023-05-10T01:12:25;0.30;;;0.20;;
77302;SDS011;66363;49.828;7.856;2023-05-10T01:14:51;0.55;;;0.40;;
77302;SDS011;66363;49.828;7.856;2023-05-10T01:17:17;0.32;;;0.32;;
77302;SDS011;66363;49.828;7.856;2023-05-10T01:19:44;0.20;;;0.20;;
77302;SDS011;66363;49.828;7.856;2023-05-10T01:22:13;0.22;;;0.22;;
77302;SDS011;66363;49.828;7.856;2023-05-10T01:25:06;0.15;;;0.15;;
77302;SDS011;66363;49.828;7.856;2023-05-10T01:27:53;0.32;;;0.20;;
77302;SDS011;66363;49.828;7.856;2023-05-10T01:33:37;0.50;;;0.30;;
77302;SDS011;66363;49.828;7.856;2023-05-10T01:36:07;1.23;;;0.25;;
77302;SDS011;66363;49.828;7.856;2023-05-10T01:38:41;0.20;;;0.20;;
77302;SDS011;66363;49.828;7.856;2023-05-10T01:43:42;0.05;;;0.05;;
77302;SDS011;66363;49.828;7.856;2023-05-10T01:46:16;1.85;;;0.28;;
77302;SDS011;66363;49.828;7.856;2023-05-10T01:48:48;0.50;;;0.47;;
77302;SDS011;66363;49.828;7.856;2023-05-10T01:51:19;0.30;;;0.30;;
77302;SDS011;66363;49.828;7.856;2023-05-10T01:53:48;0.17;;;0.15;;
77302;SDS011;66363;49.828;7.856;2023-05-10T01:56:19;0.50;;;0.40;;
77302;SDS011;66363;49.828;7.856;2023-05-10T01:58:48;0.10;;;0.10;;
77302;SDS011;66363;49.828;7.856;2023-05-10T02:01:17;0.32;;;0.30;;
77302;SDS011;66363;49.828;7.856;2023-05-10T02:03:47;0.22;;;0.13;;
77302;SDS011;66363;49.828;7.856;2023-05-10T02:06:16;0.40;;;0.28;;
77302;SDS011;66363;49.828;7.856;2023-05-10T02:08:43;0.25;;;0.20;;
77302;SDS011;66363;49.828;7.856;2023-05-10T02:11:12;0.60;;;0.60;;
77302;SDS011;66363;49.828;7.856;2023-05-10T02:13:39;0.22;;;0.20;;
77302;SDS011;66363;49.828;7.856;2023-05-10T02:16:06;0.28;;;0.28;;
77302;SDS011;66363;49.828;7.856;2023-05-10T02:18:32;0.57;;;0.50;;
77302;SDS011;66363;49.828;7.856;2023-05-10T02:21:01;0.43;;;0.43;;
77302;SDS011;66363;49.828;7.856;2023-05-10T02:23:28;0.30;;;0.30;;
77302;SDS011;66363;49.828;7.856;2023-05-10T02:25:56;0.30;;;0.20;;
77302;SDS011;66363;49.828;7.856;2023-05-10T02:28:25;0.40;;;0.38;;
77302;SDS011;66363;49.828;7.856;2023-05-10T02:30:51;0.38;;;0.38;;
77302;SDS011;66363;49.828;7.856;2023-05-10T02:33:19;0.45;;;0.45;;
77302;SDS011;66363;49.828;7.856;2023-05-10T02:35:46;0.47;;;0.30;;
77302;SDS011;66363;49.828;7.856;2023-05-10T02:38:14;0.52;;;0.45;;
77302;SDS011;66363;49.828;7.856;2023-05-10T02:40:40;0.80;;;0.50;;
77302;SDS011;66363;49.828;7.856;2023-05-10T02:43:09;0.32;;;0.32;;
77302;SDS011;66363;49.828;7.856;2023-05-10T02:45:38;0.38;;;0.38;;
77302;SDS011;66363;49.828;7.856;2023-05-10T02:48:05;1.10;;;0.50;;
77302;SDS011;66363;49.828;7.856;2023-05-10T02:50:32;0.30;;;0.30;;
77302;SDS011;66363;49.828;7.856;2023-05-10T02:53:00;0.88;;;0.50;;
77302;SDS011;66363;49.828;7.856;2023-05-10T02:55:32;0.77;;;0.50;;
77302;SDS011;66363;49.828;7.856;2023-05-10T02:58:01;0.50;;;0.50;;
77302;SDS011;66363;49.828;7.856;2023-05-10T03:00:28;0.28;;;0.22;;
77302;SDS011;66363;49.828;7.856;2023-05-10T03:02:53;0.43;;;0.38;;
77302;SDS011;66363;49.828;7.856;2023-05-10T03:05:19;0.30;;;0.30;;
77302;SDS011;66363;49.828;7.856;2023-05-10T03:07:45;2.00;;;0.38;;
77302;SDS011;66363;49.828;7.856;2023-05-10T03:12:45;0.68;;;0.55;;
77302;SDS011;66363;49.828;7.856;2023-05-10T03:15:17;0.43;;;0.43;;
77302;SDS011;66363;49.828;7.856;2023-05-10T03:17:52;0.40;;;0.40;;
77302;SDS011;66363;49.828;7.856;2023-05-10T03:20:23;0.95;;;0.70;;
77302;SDS011;66363;49.828;7.856;2023-05-10T03:22:53;0.50;;;0.50;;
77302;SDS011;66363;49.828;7.856;2023-05-10T03:25:25;0.30;;;0.20;;
77302;SDS011;66363;49.828;7.856;2023-05-10T03:27:53;1.27;;;0.77;;
77302;SDS011;66363;49.828;7.856;2023-05-10T03:30:19;0.70;;;0.70;;
77302;SDS011;66363;49.828;7.856;2023-05-10T03:32:45;0.80;;;0.65;;
77302;SDS011;66363;49.828;7.856;2023-05-10T03:35:11;1.00;;;0.63;;
77302;SDS011;66363;49.828;7.856;2023-05-10T03:37:37;1.30;;;0.63;;
77302;SDS011;66363;49.828;7.856;2023-05-10T03:40:03;1.10;;;0.80;;
77302;SDS011;66363;49.828;7.856;2023-05-10T03:42:30;0.73;;;0.73;;
77302;SDS011;66363;49.828;7.856;2023-05-10T03:44:57;4.28;;;0.82;;
77302;SDS011;66363;49.828;7.856;2023-05-10T03:47:22;0.98;;;0.80;;
77302;SDS011;66363;49.828;7.856;2023-05-10T03:49:48;0.77;;;0.77;;
77302;SDS011;66363;49.828;7.856;2023-05-10T03:52:14;0.82;;;0.60;;
77302;SDS011;66363;49.828;7.856;2023-05-10T03:54:39;0.80;;;0.70;;
77302;SDS011;66363;49.828;7.856;2023-05-10T03:57:05;0.90;;;0.80;;
77302;SDS011;66363;49.828;7.856;2023-05-10T03:59:30;5.45;;;0.90;;
77302;SDS011;66363;49.828;7.856;2023-05-10T04:01:57;1.55;;;0.90;;
77302;SDS011;66363;49.828;7.856;2023-05-10T04:04:23;0.82;;;0.65;;
77302;SDS011;66363;49.828;7.856;2023-05-10T04:06:49;1.13;;;0.93;;
77302;SDS011;66363;49.828;7.856;2023-05-10T04:09:14;0.80;;;0.60;;
77302;SDS011;66363;49.828;7.856;2023-05-10T04:11:40;1.25;;;0.90;;
77302;SDS011;66363;49.828;7.856;2023-05-10T04:14:06;1.30;;;1.08;;
77302;SDS011;66363;49.828;7.856;2023-05-10T04:16:31;1.38;;;0.85;;
77302;SDS011;66363;49.828;7.856;2023-05-10T04:18:58;2.30;;;1.10;;
77302;SDS011;66363;49.828;7.856;2023-05-10T04:21:24;1.15;;;0.88;;
77302;SDS011;66363;49.828;7.856;2023-05-10T04:23:49;1.13;;;0.80;;
77302;SDS011;66363;49.828;7.856;2023-05-10T04:26:15;3.00;;;1.13;;
77302;SDS011;66363;49.828;7.856;2023-05-10T04:28:41;1.42;;;0.90;;
77302;SDS011;66363;49.828;7.856;2023-05-10T04:31:07;1.55;;;0.82;;
77302;SDS011;66363;49.828;7.856;2023-05-10T04:33:34;0.93;;;0.73;;
77302;SDS011;66363;49.828;7.856;2023-05-10T04:36:02;1.23;;;0.80;;
77302;SDS011;66363;49.828;7.856;2023-05-10T04:38:28;1.27;;;0.93;;
77302;SDS011;66363;49.828;7.856;2023-05-10T04:40:54;1.52;;;1.10;;
77302;SDS011;66363;49.828;7.856;2023-05-10T04:43:28;1.10;;;1.00;;
77302;SDS011;66363;49.828;7.856;2023-05-10T04:45:55;1.10;;;0.90;;
77302;SDS011;66363;49.828;7.856;2023-05-10T04:48:21;0.88;;;0.82;;
77302;SDS011;66363;49.828;7.856;2023-05-10T04:50:47;1.27;;;0.90;;
77302;SDS011;66363;49.828;7.856;2023-05-10T04:53:14;1.15;;;0.80;;
77302;SDS011;66363;49.828;7.856;2023-05-10T04:55:39;1.85;;;1.00;;
77302;SDS011;66363;49.828;7.856;2023-05-10T04:58:05;2.72;;;1.25;;
77302;SDS011;66363;49.828;7.856;2023-05-10T05:00:31;3.33;;;1.20;;
77302;SDS011;66363;49.828;7.856;2023-05-10T05:02:57;3.05;;;0.98;;
77302;SDS011;66363;49.828;7.856;2023-05-10T05:05:23;1.02;;;0.82;;
77302;SDS011;66363;49.828;7.856;2023-05-10T05:07:49;2.22;;;1.23;;
77302;SDS011;66363;49.828;7.856;2023-05-10T05:10:16;6.47;;;1.20;;
77302;SDS011;66363;49.828;7.856;2023-05-10T05:12:42;1.13;;;1.00;;
77302;SDS011;66363;49.828;7.856;2023-05-10T05:15:08;1.50;;;0.90;;
77302;SDS011;66363;49.828;7.856;2023-05-10T05:17:34;1.85;;;1.20;;
77302;SDS011;66363;49.828;7.856;2023-05-10T05:19:59;1.73;;;1.40;;
77302;SDS011;66363;49.828;7.856;2023-05-10T05:22:25;2.40;;;1.00;;
77302;SDS011;66363;49.828;7.856;2023-05-10T05:24:51;1.90;;;1.30;;
77302;SDS011;66363;49.828;7.856;2023-05-10T05:27:18;1.48;;;1.02;;
77302;SDS011;66363;49.828;7.856;2023-05-10T05:29:43;1.40;;;1.17;;
77302;SDS011;66363;49.828;7.856;2023-05-10T05:32:09;1.85;;;1.15;;
77302;SDS011;66363;49.828;7.856;2023-05-10T05:34:34;1.40;;;1.13;;
77302;SDS011;66363;49.828;7.856;2023-05-10T05:37:00;1.77;;;1.20;;
77302;SDS011;66363;49.828;7.856;2023-05-10T05:39:26;3.05;;;1.30;;
77302;SDS011;66363;49.828;7.856;2023-05-10T05:41:51;2.10;;;1.40;;
77302;SDS011;66363;49.828;7.856;2023-05-10T05:44:18;2.88;;;1.67;;
77302;SDS011;66363;49.828;7.856;2023-05-10T05:46:44;1.67;;;1.10;;
77302;SDS011;66363;49.828;7.856;2023-05-10T05:49:10;2.17;;;1.27;;
77302;SDS011;66363;49.828;7.856;2023-05-10T05:51:35;1.45;;;1.00;;
77302;SDS011;66363;49.828;7.856;2023-05-10T05:54:01;2.72;;;1.63;;
77302;SDS011;66363;49.828;7.856;2023-05-10T05:56:26;1.50;;;1.00;;
77302;SDS011;66363;49.828;7.856;2023-05-10T05:58:52;1.60;;;1.27;;
77302;SDS011;66363;49.828;7.856;2023-05-10T06:01:19;2.80;;;1.23;;
77302;SDS011;66363;49.828;7.856;2023-05-10T06:03:45;2.40;;;1.50;;
77302;SDS011;66363;49.828;7.856;2023-05-10T06:06:10;1.60;;;1.30;;
77302;SDS011;66363;49.828;7.856;2023-05-10T06:08:36;1.92;;;1.30;;
77302;SDS011;66363;49.828;7.856;2023-05-10T06:11:02;2.10;;;1.30;;
77302;SDS011;66363;49.828;7.856;2023-05-10T06:13:27;1.65;;;1.25;;
77302;SDS011;66363;49.828;7.856;2023-05-10T06:15:53;1.80;;;1.00;;
77302;SDS011;66363;49.828;7.856;2023-05-10T06:18:20;1.90;;;1.27;;
77302;SDS011;66363;49.828;7.856;2023-05-10T06:20:45;1.60;;;1.08;;
77302;SDS011;66363;49.828;7.856;2023-05-10T06:23:11;1.70;;;0.88;;
77302;SDS011;66363;49.828;7.856;2023-05-10T06:25:36;1.48;;;1.05;;
77302;SDS011;66363;49.828;7.856;2023-05-10T06:28:02;1.33;;;0.90;;
77302;SDS011;66363;49.828;7.856;2023-05-10T06:30:28;1.50;;;1.10;;
77302;SDS011;66363;49.828;7.856;2023-05-10T06:32:53;2.22;;;1.30;;
77302;SDS011;66363;49.828;7.856;2023-05-10T06:35:20;1.73;;;0.90;;
77302;SDS011;66363;49.828;7.856;2023-05-10T06:37:46;1.02;;;0.90;;
77302;SDS011;66363;49.828;7.856;2023-05-10T06:40:12;2.80;;;1.08;;
77302;SDS011;66363;49.828;7.856;2023-05-10T06:42:38;2.45;;;1.13;;
77302;SDS011;66363;49.828;7.856;2023-05-10T06:45:04;1.40;;;0.82;;
77302;SDS011;66363;49.828;7.856;2023-05-10T06:47:30;3.80;;;0.98;;
77302;SDS011;66363;49.828;7.856;2023-05-10T06:49:56;2.35;;;1.30;;
77302;SDS011;66363;49.828;7.856;2023-05-10T06:52:23;1.23;;;1.00;;
77302;SDS011;66363;49.828;7.856;2023-05-10T06:54:48;1.30;;;0.93;;
77302;SDS011;66363;49.828;7.856;2023-05-10T06:57:14;1.80;;;0.93;;
77302;SDS011;66363;49.828;7.856;2023-05-10T06:59:40;1.55;;;1.17;;
77302;SDS011;66363;49.828;7.856;2023-05-10T07:02:05;1.35;;;0.70;;
77302;SDS011;66363;49.828;7.856;2023-05-10T07:04:31;1.17;;;0.85;;
77302;SDS011;66363;49.828;7.856;2023-05-10T07:06:56;3.17;;;1.10;;
77302;SDS011;66363;49.828;7.856;2023-05-10T07:09:23;0.88;;;0.75;;
77302;SDS011;66363;49.828;7.856;2023-05-10T07:11:49;1.08;;;0.98;;
77302;SDS011;66363;49.828;7.856;2023-05-10T07:14:15;2.50;;;0.82;;
77302;SDS011;66363;49.828;7.856;2023-05-10T07:16:40;1.52;;;1.00;;
77302;SDS011;66363;49.828;7.856;2023-05-10T07:19:06;1.17;;;0.88;;
77302;SDS011;66363;49.828;7.856;2023-05-10T07:21:31;0.68;;;0.50;;
77302;SDS011;66363;49.828;7.856;2023-05-10T07:23:57;1.20;;;0.98;;
77302;SDS011;66363;49.828;7.856;2023-05-10T07:26:24;0.90;;;0.80;;
77302;SDS011;66363;49.828;7.856;2023-05-10T07:28:49;0.50;;;0.50;;
77302;SDS011;66363;49.828;7.856;2023-05-10T07:31:15;0.75;;;0.70;;
77302;SDS011;66363;49.828;7.856;2023-05-10T07:33:41;1.73;;;1.00;;
77302;SDS011;66363;49.828;7.856;2023-05-10T07:36:06;1.02;;;0.68;;
77302;SDS011;66363;49.828;7.856;2023-05-10T07:38:32;0.73;;;0.63;;
77302;SDS011;66363;49.828;7.856;2023-05-10T07:40:57;1.23;;;0.95;;
77302;SDS011;66363;49.828;7.856;2023-05-10T07:43:24;0.88;;;0.77;;
77302;SDS011;66363;49.828;7.856;2023-05-10T07:45:50;1.90;;;0.70;;
77302;SDS011;66363;49.828;7.856;2023-05-10T07:48:16;1.38;;;1.17;;
77302;SDS011;66363;49.828;7.856;2023-05-10T07:50:41;0.55;;;0.50;;
77302;SDS011;66363;49.828;7.856;2023-05-10T07:53:07;0.45;;;0.45;;
77302;SDS011;66363;49.828;7.856;2023-05-10T07:55:32;0.50;;;0.50;;
77302;SDS011;66363;49.828;7.856;2023-05-10T07:57:58;0.90;;;0.55;;
77302;SDS011;66363;49.828;7.856;2023-05-10T08:00:25;0.63;;;0.60;;
77302;SDS011;66363;49.828;7.856;2023-05-10T08:02:51;0.35;;;0.30;;
77302;SDS011;66363;49.828;7.856;2023-05-10T08:05:17;0.40;;;0.40;;
77302;SDS011;66363;49.828;7.856;2023-05-10T08:07:42;1.55;;;0.55;;
77302;SDS011;66363;49.828;7.856;2023-05-10T08:10:08;0.40;;;0.40;;
77302;SDS011;66363;49.828;7.856;2023-05-10T08:12:34;0.50;;;0.47;;
77302;SDS011;66363;49.828;7.856;2023-05-10T08:15:00;0.70;;;0.50;;
77302;SDS011;66363;49.828;7.856;2023-05-10T08:17:27;0.40;;;0.40;;
77302;SDS011;66363;49.828;7.856;2023-05-10T08:19:52;1.15;;;0.45;;
77302;SDS011;66363;49.828;7.856;2023-05-10T08:22:18;0.80;;;0.50;;
77302;SDS011;66363;49.828;7.856;2023-05-10T08:24:44;0.50;;;0.50;;
77302;SDS011;66363;49.828;7.856;2023-05-10T08:27:09;0.50;;;0.50;;
77302;SDS011;66363;49.828;7.856;2023-05-10T08:29:35;1.45;;;0.47;;
77302;SDS011;66363;49.828;7.856;2023-05-10T08:32:01;1.02;;;0.55;;
77302;SDS011;66363;49.828;7.856;2023-05-10T08:34:28;0.47;;;0.45;;
77302;SDS011;66363;49.828;7.856;2023-05-10T08:36:53;0.47;;;0.47;;
77302;SDS011;66363;49.828;7.856;2023-05-10T08:39:19;1.02;;;0.60;;
77302;SDS011;66363;49.828;7.856;2023-05-10T08:44:12;0.73;;;0.73;;
77302;SDS011;66363;49.828;7.856;2023-05-10T08:46:38;0.20;;;0.20;;
77302;SDS011;66363;49.828;7.856;2023-05-10T08:49:10;0.70;;;0.70;;
77302;SDS011;66363;49.828;7.856;2023-05-10T08:51:40;1.35;;;0.90;;
77302;SDS011;66363;49.828;7.856;2023-05-10T08:54:09;0.73;;;0.60;;
77302;SDS011;66363;49.828;7.856;2023-05-10T08:56:35;0.57;;;0.57;;
77302;SDS011;66363;49.828;7.856;2023-05-10T08:59:01;0.60;;;0.60;;
77302;SDS011;66363;49.828;7.856;2023-05-10T09:01:27;0.90;;;0.70;;
77302;SDS011;66363;49.828;7.856;2023-05-10T09:03:53;0.98;;;0.77;;
77302;SDS011;66363;49.828;7.856;2023-05-10T09:08:46;0.70;;;0.60;;
77302;SDS011;66363;49.828;7.856;2023-05-10T09:11:11;0.40;;;0.40;;
77302;SDS011;66363;49.828;7.856;2023-05-10T09:13:39;0.80;;;0.60;;
77302;SDS011;66363;49.828;7.856;2023-05-10T09:16:05;0.40;;;0.40;;
77302;SDS011;66363;49.828;7.856;2023-05-10T09:20:56;0.20;;;0.20;;
77302;SDS011;66363;49.828;7.856;2023-05-10T09:23:22;0.68;;;0.63;;
77302;SDS011;66363;49.828;7.856;2023-05-10T09:25:49;0.50;;;0.50;;
77302;SDS011;66363;49.828;7.856;2023-05-10T09:28:27;0.80;;;0.63;;
77302;SDS011;66363;49.828;7.856;2023-05-10T09:30:56;0.68;;;0.52;;
77302;SDS011;66363;49.828;7.856;2023-05-10T09:33:22;0.60;;;0.60;;
77302;SDS011;66363;49.828;7.856;2023-05-10T09:35:47;0.70;;;0.70;;
77302;SDS011;66363;49.828;7.856;2023-05-10T09:38:17;0.70;;;0.50;;
77302;SDS011;66363;49.828;7.856;2023-05-10T09:40:43;1.17;;;0.70;;
77302;SDS011;66363;49.828;7.856;2023-05-10T09:43:18;0.80;;;0.50;;
77302;SDS011;66363;49.828;7.856;2023-05-10T09:45:43;0.57;;;0.52;;
77302;SDS011;66363;49.828;7.856;2023-05-10T09:48:13;1.00;;;0.80;;
77302;SDS011;66363;49.828;7.856;2023-05-10T09:50:39;1.15;;;0.68;;
77302;SDS011;66363;49.828;7.856;2023-05-10T09:53:04;1.73;;;0.65;;
77302;SDS011;66363;49.828;7.856;2023-05-10T09:55:38;1.02;;;0.55;;
77302;SDS011;66363;49.828;7.856;2023-05-10T09:58:06;0.47;;;0.45;;
77302;SDS011;66363;49.828;7.856;2023-05-10T10:00:34;0.52;;;0.52;;
77302;SDS011;66363;49.828;7.856;2023-05-10T10:03:01;0.38;;;0.38;;
77302;SDS011;66363;49.828;7.856;2023-05-10T10:05:29;0.60;;;0.60;;
77302;SDS011;66363;49.828;7.856;2023-05-10T10:07:56;0.70;;;0.70;;
77302;SDS011;66363;49.828;7.856;2023-05-10T10:10:23;0.55;;;0.55;;
77302;SDS011;66363;49.828;7.856;2023-05-10T10:12:49;0.45;;;0.45;;
77302;SDS011;66363;49.828;7.856;2023-05-10T10:17:42;0.80;;;0.40;;
77302;SDS011;66363;49.828;7.856;2023-05-10T10:20:09;0.40;;;0.40;;
77302;SDS011;66363;49.828;7.856;2023-05-10T10:22:35;2.08;;;0.50;;
77302;SDS011;66363;49.828;7.856;2023-05-10T10:25:01;0.50;;;0.50;;
77302;SDS011;66363;49.828;7.856;2023-05-10T10:27:32;0.57;;;0.57;;
77302;SDS011;66363;49.828;7.856;2023-05-10T10:30:10;0.50;;;0.50;;
77302;SDS011;66363;49.828;7.856;2023-05-10T10:32:54;0.70;;;0.52;;
77302;SDS011;66363;49.828;7.856;2023-05-10T10:35:33;0.75;;;0.75;;
77302;SDS011;66363;49.828;7.856;2023-05-10T10:38:00;0.45;;;0.40;;
77302;SDS011;66363;49.828;7.856;2023-05-10T10:42:52;0.60;;;0.45;;
77302;SDS011;66363;49.828;7.856;2023-05-10T10:45:18;0.70;;;0.65;;
77302;SDS011;66363;49.828;7.856;2023-05-10T10:47:44;1.27;;;0.40;;
77302;SDS011;66363;49.828;7.856;2023-05-10T10:52:37;0.70;;;0.70;;
77302;SDS011;66363;49.828;7.856;2023-05-10T10:55:05;0.65;;;0.50;;
77302;SDS011;66363;49.828;7.856;2023-05-10T10:57:32;0.52;;;0.50;;
77302;SDS011;66363;49.828;7.856;2023-05-10T11:02:46;0.70;;;0.50;;
77302;SDS011;66363;49.828;7.856;2023-05-10T11:05:32;0.22;;;0.20;;
77302;SDS011;66363;49.828;7.856;2023-05-10T11:08:12;0.60;;;0.60;;
77302;SDS011;66363;49.828;7.856;2023-05-10T11:10:52;0.60;;;0.60;;
77302;SDS011;66363;49.828;7.856;2023-05-10T11:13:27;0.38;;;0.38;;
77302;SDS011;66363;49.828;7.856;2023-05-10T11:15:53;0.30;;;0.30;;
77302;SDS011;66363;49.828;7.856;2023-05-10T11:18:20;0.38;;;0.32;;
77302;SDS011;66363;49.828;7.856;2023-05-10T11:20:52;0.40;;;0.40;;
77302;SDS011;66363;49.828;7.856;2023-05-10T11:23:22;0.77;;;0.50;;
77302;SDS011;66363;49.828;7.856;2023-05-10T11:25:48;0.45;;;0.45;;
77302;SDS011;66363;49.828;7.856;2023-05-10T11:28:16;0.30;;;0.30;;
77302;SDS011;66363;49.828;7.856;2023-05-10T11:30:43;2.17;;;0.60;;
77302;SDS011;66363;49.828;7.856;2023-05-10T11:33:09;0.50;;;0.43;;
77302;SDS011;66363;49.828;7.856;2023-05-10T11:35:40;0.45;;;0.45;;
77302;SDS011;66363;49.828;7.856;2023-05-10T11:40:33;0.40;;;0.40;;
77302;SDS011;66363;49.828;7.856;2023-05-10T11:42:59;0.60;;;0.45;;
77302;SDS011;66363;49.828;7.856;2023-05-10T11:45:25;1.00;;;0.63;;
77302;SDS011;66363;49.828;7.856;2023-05-10T11:47:50;0.45;;;0.45;;
77302;SDS011;66363;49.828;7.856;2023-05-10T11:50:16;0.70;;;0.45;;
77302;SDS011;66363;49.828;7.856;2023-05-10T11:52:43;0.75;;;0.63;;
77302;SDS011;66363;49.828;7.856;2023-05-10T11:55:10;2.75;;;0.95;;
77302;SDS011;66363;49.828;7.856;2023-05-10T11:57:37;0.50;;;0.50;;
77302;SDS011;66363;49.828;7.856;2023-05-10T12:00:03;0.50;;;0.47;;
77302;SDS011;66363;49.828;7.856;2023-05-10T12:02:29;0.80;;;0.38;;
77302;SDS011;66363;49.828;7.856;2023-05-10T12:04:55;0.52;;;0.47;;
77302;SDS011;66363;49.828;7.856;2023-05-10T12:12:36;0.50;;;0.50;;
77302;SDS011;66363;49.828;7.856;2023-05-10T12:17:28;0.63;;;0.50;;
77302;SDS011;66363;49.828;7.856;2023-05-10T12:19:58;0.95;;;0.60;;
77302;SDS011;66363;49.828;7.856;2023-05-10T12:22:24;3.15;;;0.70;;
77302;SDS011;66363;49.828;7.856;2023-05-10T12:24:50;1.48;;;0.57;;
77302;SDS011;66363;49.828;7.856;2023-05-10T12:27:15;0.95;;;0.73;;
77302;SDS011;66363;49.828;7.856;2023-05-10T12:29:42;2.05;;;1.02;;
77302;SDS011;66363;49.828;7.856;2023-05-10T12:32:08;0.77;;;0.73;;
77302;SDS011;66363;49.828;7.856;2023-05-10T12:34:34;0.45;;;0.45;;
77302;SDS011;66363;49.828;7.856;2023-05-10T12:37:00;1.48;;;0.60;;
77302;SDS011;66363;49.828;7.856;2023-05-10T12:39:37;0.85;;;0.47;;
77302;SDS011;66363;49.828;7.856;2023-05-10T12:42:04;0.70;;;0.47;;
77302;SDS011;66363;49.828;7.856;2023-05-10T12:44:30;0.52;;;0.52;;
77302;SDS011;66363;49.828;7.856;2023-05-10T12:46:57;0.52;;;0.52;;
77302;SDS011;66363;49.828;7.856;2023-05-10T12:49:22;0.98;;;0.65;;
77302;SDS011;66363;49.828;7.856;2023-05-10T12:51:48;1.30;;;0.90;;
77302;SDS011;66363;49.828;7.856;2023-05-10T12:54:13;0.65;;;0.55;;
77302;SDS011;66363;49.828;7.856;2023-05-10T12:56:39;0.80;;;0.70;;
77302;SDS011;66363;49.828;7.856;2023-05-10T12:59:05;1.52;;;0.73;;
77302;SDS011;66363;49.828;7.856;2023-05-10T13:01:30;2.35;;;0.75;;
77302;SDS011;66363;49.828;7.856;2023-05-10T13:03:57;0.88;;;0.60;;
77302;SDS011;66363;49.828;7.856;2023-05-10T13:06:23;0.60;;;0.60;;
77302;SDS011;66363;49.828;7.856;2023-05-10T13:08:49;0.80;;;0.35;;
77302;SDS011;66363;49.828;7.856;2023-05-10T13:11:14;1.17;;;1.00;;
77302;SDS011;66363;49.828;7.856;2023-05-10T13:13:40;1.90;;;0.80;;
77302;SDS011;66363;49.828;7.856;2023-05-10T13:18:31;0.90;;;0.75;;
77302;SDS011;66363;49.828;7.856;2023-05-10T13:23:24;1.50;;;0.85;;
77302;SDS011;66363;49.828;7.856;2023-05-10T13:25:49;3.38;;;1.10;;
77302;SDS011;66363;49.828;7.856;2023-05-10T13:28:15;1.02;;;0.80;;
77302;SDS011;66363;49.828;7.856;2023-05-10T13:33:06;1.33;;;0.60;;
77302;SDS011;66363;49.828;7.856;2023-05-10T13:35:32;1.58;;;0.75;;
77302;SDS011;66363;49.828;7.856;2023-05-10T13:37:58;1.20;;;0.68;;
77302;SDS011;66363;49.828;7.856;2023-05-10T13:40:24;0.70;;;0.70;;
77302;SDS011;66363;49.828;7.856;2023-05-10T13:42:50;0.93;;;0.75;;
77302;SDS011;66363;49.828;7.856;2023-05-10T13:47:41;1.23;;;1.10;;
77302;SDS011;66363;49.828;7.856;2023-05-10T13:50:06;0.95;;;0.68;;
77302;SDS011;66363;49.828;7.856;2023-05-10T13:52:32;2.38;;;0.85;;
77302;SDS011;66363;49.828;7.856;2023-05-10T13:57:25;1.63;;;0.90;;
77302;SDS011;66363;49.828;7.856;2023-05-10T14:02:16;0.90;;;0.80;;
77302;SDS011;66363;49.828;7.856;2023-05-10T14:07:07;0.52;;;0.52;;
77302;SDS011;66363;49.828;7.856;2023-05-10T14:12:00;0.80;;;0.80;;
77302;SDS011;66363;49.828;7.856;2023-05-10T14:14:25;2.13;;;0.88;;
77302;SDS011;66363;49.828;7.856;2023-05-10T14:16:51;3.72;;;3.42;;
77302;SDS011;66363;49.828;7.856;2023-05-10T14:21:42;0.60;;;0.60;;
77302;SDS011;66363;49.828;7.856;2023-05-10T14:24:07;0.70;;;0.70;;
77302;SDS011;66363;49.828;7.856;2023-05-10T14:29:00;1.20;;;0.77;;
77302;SDS011;66363;49.828;7.856;2023-05-10T14:31:26;0.60;;;0.60;;
77302;SDS011;66363;49.828;7.856;2023-05-10T14:36:17;1.13;;;0.80;;
77302;SDS011;66363;49.828;7.856;2023-05-10T14:41:08;0.85;;;0.73;;
77302;SDS011;66363;49.828;7.856;2023-05-10T14:43:34;2.00;;;0.88;;
77302;SDS011;66363;49.828;7.856;2023-05-10T14:48:26;6.03;;;1.90;;
77302;SDS011;66363;49.828;7.856;2023-05-10T14:50:52;5.65;;;3.22;;
77302;SDS011;66363;49.828;7.856;2023-05-10T14:55:43;5.35;;;2.92;;
77302;SDS011;66363;49.828;7.856;2023-05-10T15:00:34;8.40;;;4.20;;
77302;SDS011;66363;49.828;7.856;2023-05-10T15:03:01;9.52;;;3.85;;
77302;SDS011;66363;49.828;7.856;2023-05-10T15:05:27;7.65;;;3.80;;
77302;SDS011;66363;49.828;7.856;2023-05-10T15:07:52;6.47;;;2.50;;
77302;SDS011;66363;49.828;7.856;2023-05-10T15:10:18;3.85;;;1.95;;
77302;SDS011;66363;49.828;7.856;2023-05-10T15:12:44;4.38;;;1.50;;
77302;SDS011;66363;49.828;7.856;2023-05-10T15:15:09;3.58;;;2.05;;
77302;SDS011;66363;49.828;7.856;2023-05-10T15:17:35;2.30;;;1.50;;
77302;SDS011;66363;49.828;7.856;2023-05-10T15:22:28;2.15;;;0.75;;
77302;SDS011;66363;49.828;7.856;2023-05-10T15:24:53;1.02;;;0.75;;
77302;SDS011;66363;49.828;7.856;2023-05-10T15:29:44;1.03;;;0.70;;
77302;SDS011;66363;49.828;7.856;2023-05-10T15:32:10;1.60;;;0.90;;
77302;SDS011;66363;49.828;7.856;2023-05-10T15:34:36;0.70;;;0.55;;
77302;SDS011;66363;49.828;7.856;2023-05-10T15:37:03;0.85;;;0.50;;
77302;SDS011;66363;49.828;7.856;2023-05-10T15:39:29;0.88;;;0.80;;
77302;SDS011;66363;49.828;7.856;2023-05-10T15:41:54;1.35;;;0.65;;
77302;SDS011;66363;49.828;7.856;2023-05-10T15:44:20;0.80;;;0.68;;
77302;SDS011;66363;49.828;7.856;2023-05-10T15:46:45;0.70;;;0.55;;
77302;SDS011;66363;49.828;7.856;2023-05-10T15:49:11;1.48;;;0.60;;
77302;SDS011;66363;49.828;7.856;2023-05-10T15:51:37;0.60;;;0.50;;
77302;SDS011;66363;49.828;7.856;2023-05-10T15:54:04;0.55;;;0.40;;
77302;SDS011;66363;49.828;7.856;2023-05-10T15:56:29;1.45;;;0.73;;
77302;SDS011;66363;49.828;7.856;2023-05-10T15:58:55;0.73;;;0.70;;
77302;SDS011;66363;49.828;7.856;2023-05-10T16:01:20;0.68;;;0.50;;
77302;SDS011;66363;49.828;7.856;2023-05-10T16:06:11;0.50;;;0.50;;
77302;SDS011;66363;49.828;7.856;2023-05-10T16:08:37;0.30;;;0.30;;
77302;SDS011;66363;49.828;7.856;2023-05-10T16:13:31;0.63;;;0.43;;